Time;durP1;ratioP1;P1;durP2;ratioP2;P2;SDS_P1;SDS_P2;PMS_P1;PMS_P2;Temp;Humidity;BMP_temperature;BMP_pressure;BME280_temperature;BME280_humidity;BME280_pressure;Samples;Min_cycle;Max_cycle;Signal;HPM_P1;HPM_P2
2023/02/14 00:01:50;;;;;;;7.20;4.80;;;;;;;2.37;88.16;99459.95;105867;1253;73158;-25
2023/02/14 00:04:19;;;;;;;7.40;5.10;;;;;;;2.26;89.00;99466.89;105507;1253;61138;-27
2023/02/14 00:06:51;;;;;;;9.20;5.40;;;;;;;2.31;89.21;99466.33;105544;1253;62221;-24
2023/02/14 00:09:20;;;;;;;6.70;4.80;;;;;;;2.48;88.48;99465.81;105806;1257;74950;-25
2023/02/14 00:11:53;;;;;;;7.90;4.80;;;;;;;2.43;88.31;99464.83;105586;1253;75931;-25
2023/02/14 00:17:09;;;;;;;7.20;5.20;;;;;;;2.25;88.96;99466.58;105688;1253;62736;-24
2023/02/14 00:19:38;;;;;;;7.00;5.40;;;;;;;2.54;88.03;99451.36;105768;1253;61440;-25
2023/02/14 00:22:07;;;;;;;7.40;4.90;;;;;;;2.60;87.18;99469.80;105564;1253;75144;-25
2023/02/14 00:24:36;;;;;;;8.60;5.90;;;;;;;2.53;87.28;99471.79;105486;1258;75767;-24
2023/02/14 00:27:05;;;;;;;8.10;5.50;;;;;;;2.30;88.37;99461.26;105790;1253;73654;-25
2023/02/14 00:29:34;;;;;;;6.40;4.70;;;;;;;2.25;89.12;99458.91;105506;1253;62726;-24
2023/02/14 00:32:02;;;;;;;7.70;5.10;;;;;;;2.57;87.79;99474.05;105534;1253;61089;-25
2023/02/14 00:34:32;;;;;;;7.20;4.70;;;;;;;2.61;87.29;99468.89;105678;1253;75645;-24
2023/02/14 00:37:02;;;;;;;5.60;4.50;;;;;;;2.44;87.75;99464.64;105512;1253;74650;-25
2023/02/14 00:39:30;;;;;;;7.90;5.70;;;;;;;2.29;88.52;99460.43;105387;1255;72932;-25
2023/02/14 00:42:00;;;;;;;8.70;6.50;;;;;;;2.38;88.36;99463.01;105439;1258;61145;-25
2023/02/14 00:44:28;;;;;;;6.70;5.30;;;;;;;2.65;87.07;99462.39;105563;1257;61854;-25
2023/02/14 00:46:57;;;;;;;11.30;6.20;;;;;;;2.61;86.63;99461.02;105582;1253;75398;-25
2023/02/14 00:49:26;;;;;;;7.60;5.50;;;;;;;2.40;87.77;99431.38;105503;1253;74830;-24
2023/02/14 00:51:54;;;;;;;5.10;3.90;;;;;;;2.25;88.61;99453.05;105517;1258;74287;-25
2023/02/14 00:54:24;;;;;;;7.00;4.90;;;;;;;2.41;88.30;99435.11;105547;1253;61090;-25
2023/02/14 00:56:52;;;;;;;8.70;6.60;;;;;;;2.51;87.48;99438.27;105544;1253;61757;-25
2023/02/14 00:59:21;;;;;;;7.90;5.60;;;;;;;2.40;87.81;99437.38;105513;1253;74409;-25
2023/02/14 01:01:50;;;;;;;6.60;4.70;;;;;;;2.25;88.34;99443.30;105426;1258;75902;-24
2023/02/14 01:04:18;;;;;;;6.90;5.20;;;;;;;2.27;88.59;99451.42;105687;1253;74317;-25
2023/02/14 01:06:47;;;;;;;7.20;5.40;;;;;;;2.59;87.36;99446.91;105708;1256;61706;-25
2023/02/14 01:09:16;;;;;;;10.20;6.40;;;;;;;2.49;87.13;99454.34;105779;1257;61874;-24
2023/02/14 01:11:45;;;;;;;7.80;5.50;;;;;;;2.43;87.40;99450.63;105644;1253;74267;-25
2023/02/14 01:14:15;;;;;;;9.50;5.40;;;;;;;2.23;88.15;99451.05;105698;1253;76026;-24
2023/02/14 01:16:44;;;;;;;6.40;4.60;;;;;;;2.24;88.45;99443.52;105714;1257;73500;-24
2023/02/14 01:19:12;;;;;;;8.40;3.90;;;;;;;2.59;87.01;99445.52;105425;1254;61743;-24
2023/02/14 01:21:43;;;;;;;8.30;4.30;;;;;;;2.42;86.82;99447.58;105586;1256;62257;-24
2023/02/14 01:24:12;;;;;;;8.80;4.50;;;;;;;2.34;87.36;99445.17;105823;1253;75319;-25
2023/02/14 01:26:43;;;;;;;6.60;4.10;;;;;;;2.17;87.98;99442.74;105653;1253;75882;-24
2023/02/14 01:29:12;;;;;;;5.60;3.60;;;;;;;2.38;87.41;99442.25;105439;1258;74248;-24
2023/02/14 01:31:41;;;;;;;7.20;4.30;;;;;;;2.63;85.89;99442.26;105701;1253;61774;-24
2023/02/14 01:34:09;;;;;;;6.90;4.10;;;;;;;2.47;86.02;99435.89;105568;1253;61058;-24
2023/02/14 01:36:39;;;;;;;7.10;4.00;;;;;;;2.31;86.55;99432.08;105490;1258;75376;-25
2023/02/14 01:39:13;;;;;;;7.70;4.20;;;;;;;2.23;86.99;99440.14;105835;1254;75835;-24
2023/02/14 01:41:42;;;;;;;6.40;3.50;;;;;;;2.36;86.76;99447.13;105526;1253;74184;-24
2023/02/14 01:44:13;;;;;;;6.70;4.00;;;;;;;2.56;85.61;99441.70;105498;1258;61964;-24
2023/02/14 01:46:43;;;;;;;5.00;3.20;;;;;;;2.44;85.72;99435.15;105508;1258;61827;-24
2023/02/14 01:49:13;;;;;;;6.90;3.90;;;;;;;2.33;86.30;99429.79;105366;1253;75239;-25
2023/02/14 01:51:45;;;;;;;7.20;4.70;;;;;;;2.23;86.84;99427.42;105410;1260;75614;-25
2023/02/14 01:54:13;;;;;;;5.10;3.70;;;;;;;2.47;86.01;99432.30;105625;1256;74005;-24
2023/02/14 01:56:48;;;;;;;4.80;3.30;;;;;;;2.55;85.04;99418.77;105575;1252;61914;-24
2023/02/14 01:59:19;;;;;;;7.00;4.40;;;;;;;2.53;84.83;99437.68;105295;1260;61840;-24
2023/02/14 02:01:49;;;;;;;8.30;4.40;;;;;;;2.38;85.21;99429.08;105401;1257;73749;-24
2023/02/14 02:04:21;;;;;;;4.70;3.80;;;;;;;2.24;85.91;99428.77;105391;1258;75116;-24
2023/02/14 02:07:00;;;;;;;6.30;3.80;;;;;;;2.40;85.59;99421.09;105349;1258;74232;-24
2023/02/14 02:09:41;;;;;;;8.70;4.20;;;;;;;2.54;84.79;99424.09;105274;1255;61855;-24
2023/02/14 02:12:09;;;;;;;4.80;3.70;;;;;;;2.48;84.75;99424.00;105425;1261;61871;-25
2023/02/14 02:14:38;;;;;;;5.90;3.80;;;;;;;2.31;85.28;99412.72;105755;1254;75201;-24
2023/02/14 02:17:31;;;;;;;6.40;3.50;;;;;;;2.17;85.94;99406.80;105918;1253;74831;-24
2023/02/14 02:20:23;;;;;;;7.50;3.40;;;;;;;2.58;84.64;99413.86;105886;1253;74161;-24
2023/02/14 02:23:20;;;;;;;6.90;3.70;;;;;;;2.61;83.99;99420.57;105488;1259;62006;-24
2023/02/14 02:33:45;;;;;;;4.00;3.10;;;;;;;2.63;83.72;99410.55;102580;1293;599978;-25
2023/02/14 02:36:40;;;;;;;5.30;3.60;;;;;;;2.60;82.95;99396.76;104822;1267;61866;-26
2023/02/14 02:39:11;;;;;;;4.30;3.00;;;;;;;2.38;83.74;99394.61;104835;1267;61440;-26
2023/02/14 02:42:05;;;;;;;5.50;3.00;;;;;;;2.28;84.20;99401.88;104758;1268;73528;-25
2023/02/14 02:44:55;;;;;;;4.00;3.00;;;;;;;2.40;84.07;99399.34;104785;1269;75897;-25
2023/02/14 02:47:24;;;;;;;4.40;2.70;;;;;;;2.77;82.15;99400.34;103440;1267;1907817;-25
2023/02/14 02:53:32;;;;;;;6.10;3.30;;;;;;;2.36;83.29;99392.97;105056;1269;61894;-25
2023/02/14 02:59:19;;;;;;;4.60;3.00;;;;;;;2.51;82.56;99376.10;104850;1270;73838;-25
2023/02/14 03:02:16;;;;;;;6.30;3.10;;;;;;;2.43;82.43;99382.92;104762;1269;74227;-25
2023/02/14 03:04:54;;;;;;;8.20;3.10;;;;;;;2.23;83.34;99373.30;104875;1267;61212;-25
2023/02/14 03:07:37;;;;;;;4.20;3.50;;;;;;;2.15;83.79;99362.67;104831;1272;61658;-25
2023/02/14 03:10:13;;;;;;;3.90;2.60;;;;;;;2.23;83.98;99369.89;104863;1269;73273;-25
2023/02/14 03:13:00;;;;;;;3.90;3.00;;;;;;;2.40;83.01;99353.58;104844;1266;75684;-25
2023/02/14 03:16:07;;;;;;;5.00;3.20;;;;;;;2.30;83.37;99345.11;105072;1266;73912;-25
2023/02/14 03:21:47;;;;;;;6.20;3.80;;;;;;;2.16;84.59;99351.50;104744;1266;61606;-25
2023/02/14 03:24:18;;;;;;;6.00;4.00;;;;;;;2.40;83.74;99360.75;104859;1267;74552;-25
2023/02/14 03:27:06;;;;;;;5.00;3.50;;;;;;;2.31;83.80;99377.09;104827;1267;74822;-25
2023/02/14 03:29:42;;;;;;;5.30;2.70;;;;;;;2.27;84.04;99393.20;104819;1266;74313;-25
2023/02/14 03:32:14;;;;;;;8.70;3.70;;;;;;;2.01;85.30;99376.95;104633;1266;61178;-25
2023/02/14 03:35:09;;;;;;;5.60;3.60;;;;;;;2.10;85.44;99383.77;104794;1266;61081;-25
2023/02/14 03:37:51;;;;;;;6.80;3.90;;;;;;;2.33;84.36;99391.04;104846;1270;73562;-25
2023/02/14 03:40:41;;;;;;;7.10;4.00;;;;;;;2.26;84.24;99390.84;104748;1266;75829;-25
2023/02/14 03:43:14;;;;;;;4.90;3.40;;;;;;;2.13;84.62;99364.99;104866;1266;74486;-25
2023/02/14 03:45:55;;;;;;;4.80;3.40;;;;;;;2.06;85.01;99368.00;104840;1267;62568;-25
2023/02/14 03:48:24;;;;;;;3.90;3.20;;;;;;;2.41;83.66;99384.05;104817;1266;61944;-25
2023/02/14 03:50:52;;;;;;;4.80;3.10;;;;;;;2.25;83.65;99376.49;104884;1265;73420;-25
2023/02/14 03:53:24;;;;;;;5.50;3.50;;;;;;;2.12;84.04;99373.25;104900;1268;75882;-25
2023/02/14 03:56:07;;;;;;;6.60;3.40;;;;;;;2.00;84.65;99366.02;104630;1267;73949;-25
2023/02/14 03:58:44;;;;;;;5.20;2.80;;;;;;;2.17;83.95;99375.24;104796;1266;61147;-25
2023/02/14 04:01:20;;;;;;;6.80;2.90;;;;;;;2.48;82.69;99388.55;104868;1270;61708;-25
2023/02/14 04:03:49;;;;;;;4.50;3.30;;;;;;;2.37;82.35;99394.83;104761;1267;73606;-25
2023/02/14 04:06:18;;;;;;;3.80;2.70;;;;;;;2.14;83.21;99379.50;104877;1266;74842;-25
2023/02/14 04:08:47;;;;;;;4.20;2.60;;;;;;;2.11;83.78;99391.41;104882;1266;72922;-26
2023/02/14 04:11:20;;;;;;;3.90;2.50;;;;;;;2.28;82.60;99391.77;104897;1265;61669;-25
2023/02/14 04:13:51;;;;;;;3.10;2.20;;;;;;;2.44;82.00;99396.91;105709;1258;61876;-25
2023/02/14 04:16:20;;;;;;;6.00;2.90;;;;;;;2.33;82.18;99397.38;105709;1253;74788;-25
2023/02/14 04:21:36;;;;;;;3.60;2.80;;;;;;;2.14;83.45;99402.98;105668;1258;73029;-26
2023/02/14 04:24:05;;;;;;;5.50;2.70;;;;;;;2.44;82.40;99405.48;105513;1253;61865;-25
2023/02/14 04:26:34;;;;;;;6.90;3.10;;;;;;;2.32;82.39;99403.27;105633;1258;61889;-25
2023/02/14 04:29:03;;;;;;;4.60;2.30;;;;;;;2.20;82.94;99407.52;105552;1254;74588;-25
2023/02/14 04:31:33;;;;;;;4.60;2.70;;;;;;;2.21;83.07;99413.98;105637;1254;75867;-25
2023/02/14 04:34:02;;;;;;;5.60;2.30;;;;;;;2.06;83.41;99416.66;105497;1254;73221;-25
2023/02/14 04:36:30;;;;;;;3.90;2.50;;;;;;;2.29;83.00;99428.89;105513;1254;61149;-25
2023/02/14 04:39:02;;;;;;;8.90;2.40;;;;;;;2.31;82.60;99431.59;105562;1258;61881;-25
2023/02/14 04:41:30;;;;;;;4.80;2.70;;;;;;;2.24;82.92;99437.67;105565;1253;74556;-25
2023/02/14 04:43:59;;;;;;;3.70;2.80;;;;;;;2.04;83.62;99440.73;105631;1254;75823;-25
2023/02/14 04:46:28;;;;;;;6.10;2.90;;;;;;;2.02;83.91;99441.48;105654;1259;73975;-25
2023/02/14 04:48:56;;;;;;;8.10;3.00;;;;;;;2.26;82.87;99435.36;105667;1253;61112;-25
2023/02/14 04:51:25;;;;;;;5.80;2.50;;;;;;;2.48;81.91;99458.97;105541;1259;61080;-25
2023/02/14 04:53:55;;;;;;;6.00;3.10;;;;;;;2.33;82.07;99458.75;105603;1253;74332;-25
2023/02/14 04:56:24;;;;;;;5.80;3.10;;;;;;;2.15;82.89;99457.58;105631;1254;75814;-25
2023/02/14 04:58:53;;;;;;;8.60;4.30;;;;;;;1.98;83.85;99467.66;105487;1253;73967;-25
2023/02/14 05:01:22;;;;;;;7.80;3.70;;;;;;;2.36;82.75;99471.80;105580;1254;61883;-25
2023/02/14 05:03:50;;;;;;;3.10;2.10;;;;;;;2.33;82.11;99462.69;105595;1255;61700;-25
2023/02/14 05:06:19;;;;;;;4.80;3.10;;;;;;;2.28;82.60;99475.21;105386;1253;74508;-25
2023/02/14 05:08:47;;;;;;;4.60;2.20;;;;;;;2.22;82.81;99471.00;105662;1254;75844;-25
2023/02/14 05:11:16;;;;;;;3.80;2.20;;;;;;;2.11;83.41;99472.15;105370;1253;73945;-26
2023/02/14 05:13:44;;;;;;;5.90;2.90;;;;;;;2.21;83.11;99482.00;105536;1253;61600;-26
2023/02/14 05:16:13;;;;;;;3.90;2.20;;;;;;;2.25;82.99;99478.75;105637;1255;61217;-25
2023/02/14 05:18:43;;;;;;;4.60;3.10;;;;;;;2.17;83.12;99492.59;105590;1253;74558;-25
2023/02/14 05:21:13;;;;;;;7.70;3.50;;;;;;;2.02;84.10;99485.13;105550;1253;75654;-25
2023/02/14 05:23:41;;;;;;;4.10;2.80;;;;;;;2.16;84.15;99490.92;105522;1254;73945;-26
2023/02/14 05:26:10;;;;;;;4.00;2.10;;;;;;;2.29;83.47;99491.63;105553;1258;61965;-25
2023/02/14 05:28:39;;;;;;;4.40;2.90;;;;;;;2.23;83.66;99479.87;105524;1258;61665;-25
2023/02/14 05:31:08;;;;;;;4.50;2.20;;;;;;;2.15;84.30;99487.71;105641;1254;74374;-25
2023/02/14 05:33:38;;;;;;;4.60;2.10;;;;;;;1.96;84.98;99482.66;105571;1260;75671;-25
2023/02/14 05:36:07;;;;;;;3.10;2.00;;;;;;;1.92;85.67;99490.15;105589;1259;74167;-25
2023/02/14 05:38:36;;;;;;;5.40;2.20;;;;;;;2.24;84.94;99490.60;105685;1254;61618;-25
2023/02/14 05:41:04;;;;;;;5.70;2.60;;;;;;;2.25;84.72;99495.21;105702;1259;61874;-25
2023/02/14 05:43:33;;;;;;;4.60;2.40;;;;;;;2.04;85.40;99499.13;105703;1253;72720;-25
2023/02/14 05:46:04;;;;;;;3.20;2.30;;;;;;;1.83;86.38;99491.86;105621;1254;75663;-25
2023/02/14 05:48:34;;;;;;;4.60;2.30;;;;;;;1.96;86.37;99493.77;105585;1254;73256;-25
2023/02/14 05:51:04;;;;;;;4.60;2.70;;;;;;;2.20;85.30;99492.48;105686;1253;61892;-25
2023/02/14 05:53:33;;;;;;;5.50;2.30;;;;;;;2.07;85.81;99498.12;105645;1259;61676;-25
2023/02/14 05:56:02;;;;;;;3.70;2.20;;;;;;;1.96;86.15;99502.32;105695;1254;73410;-25
2023/02/14 05:58:30;;;;;;;5.20;2.70;;;;;;;1.88;86.76;99498.02;105671;1253;75810;-25
2023/02/14 06:00:59;;;;;;;3.00;1.70;;;;;;;1.93;86.65;99484.44;105730;1254;74485;-25
2023/02/14 06:03:29;;;;;;;8.20;3.00;;;;;;;2.14;85.57;99479.00;105671;1254;61783;-26
2023/02/14 06:05:57;;;;;;;3.60;2.10;;;;;;;1.91;86.34;99491.39;105708;1259;61821;-25
2023/02/14 06:08:27;;;;;;;3.00;2.00;;;;;;;1.94;86.41;99489.23;105630;1254;74418;-25
2023/02/14 06:10:56;;;;;;;5.40;2.30;;;;;;;1.77;87.00;99497.90;105587;1259;75802;-24
2023/02/14 06:13:28;;;;;;;2.50;1.90;;;;;;;1.92;87.02;99489.63;105633;1259;74371;-25
2023/02/14 06:15:57;;;;;;;6.20;2.60;;;;;;;2.10;86.27;99500.23;105576;1253;61651;-25
2023/02/14 06:18:28;;;;;;;4.20;2.70;;;;;;;2.04;85.85;99496.19;105463;1258;61543;-25
2023/02/14 06:20:57;;;;;;;2.70;2.00;;;;;;;1.86;86.66;99504.57;105573;1259;74493;-25
2023/02/14 06:23:26;;;;;;;4.60;2.20;;;;;;;1.79;87.00;99503.64;105693;1254;74862;-25
2023/02/14 06:25:55;;;;;;;2.60;1.90;;;;;;;1.86;87.05;99499.95;105694;1253;74046;-25
2023/02/14 06:28:23;;;;;;;3.30;2.40;;;;;;;2.06;86.32;99506.40;105679;1253;61755;-25
2023/02/14 06:30:52;;;;;;;4.60;2.40;;;;;;;1.93;86.31;99499.34;105740;1255;61838;-25
2023/02/14 06:33:21;;;;;;;3.10;2.10;;;;;;;1.84;86.91;99501.24;105671;1253;74708;-25
2023/02/14 06:35:52;;;;;;;5.00;2.10;;;;;;;1.77;87.44;99505.97;105668;1255;75655;-24
2023/02/14 06:38:21;;;;;;;2.70;1.80;;;;;;;1.87;87.32;99508.65;105639;1253;74349;-25
2023/02/14 06:40:52;;;;;;;4.20;2.20;;;;;;;2.06;86.37;99515.80;105622;1259;61164;-24
2023/02/14 06:43:20;;;;;;;5.10;2.40;;;;;;;2.01;86.23;99505.75;105578;1255;61760;-24
2023/02/14 06:45:49;;;;;;;6.60;2.70;;;;;;;2.00;86.69;99521.17;105618;1254;74290;-24
2023/02/14 06:48:18;;;;;;;4.20;2.10;;;;;;;1.77;87.50;99513.85;105547;1259;75872;-24
2023/02/14 06:50:47;;;;;;;5.80;2.10;;;;;;;2.10;86.57;99515.69;105614;1259;74482;-24
2023/02/14 06:53:16;;;;;;;3.60;2.00;;;;;;;2.09;85.82;99508.86;105708;1253;61642;-25
2023/02/14 06:55:44;;;;;;;6.00;1.90;;;;;;;2.01;86.16;99517.36;105711;1259;61874;-24
2023/02/14 06:58:14;;;;;;;3.80;2.20;;;;;;;1.83;87.15;99514.46;105657;1259;75417;-25
2023/02/14 07:00:42;;;;;;;6.30;2.60;;;;;;;1.97;86.85;99524.73;105506;1253;75991;-26
2023/02/14 07:03:12;;;;;;;6.30;1.90;;;;;;;2.23;85.86;99507.11;105678;1254;74370;-24
2023/02/14 07:05:43;;;;;;;7.10;2.50;;;;;;;2.17;85.89;99531.30;105637;1259;61231;-25
2023/02/14 07:08:17;;;;;;;4.90;2.40;;;;;;;1.98;86.73;99518.52;105513;1254;61854;-24
2023/02/14 07:10:46;;;;;;;5.60;2.20;;;;;;;1.79;87.49;99530.88;105686;1253;73756;-24
2023/02/14 07:13:14;;;;;;;2.20;1.70;;;;;;;1.93;87.66;99535.51;105645;1258;75850;-25
2023/02/14 07:15:43;;;;;;;5.20;2.40;;;;;;;2.16;86.56;99536.83;105679;1259;74238;-25
2023/02/14 07:18:11;;;;;;;3.60;1.80;;;;;;;2.10;86.53;99539.13;105666;1254;61711;-24
2023/02/14 07:20:40;;;;;;;5.20;2.00;;;;;;;2.08;86.67;99543.82;105726;1256;61695;-25
2023/02/14 07:23:09;;;;;;;4.00;2.40;;;;;;;1.84;87.80;99551.39;105735;1258;75320;-24
2023/02/14 07:25:39;;;;;;;5.10;2.20;;;;;;;2.04;88.10;99551.36;105661;1254;74828;-24
2023/02/14 07:28:07;;;;;;;5.10;2.70;;;;;;;2.20;86.94;99541.14;105533;1253;74184;-23
2023/02/14 07:30:36;;;;;;;4.40;2.00;;;;;;;2.17;86.96;99533.89;105495;1258;61680;-23
2023/02/14 07:33:04;;;;;;;7.50;3.40;;;;;;;2.06;87.43;99547.16;105605;1259;61652;-23
2023/02/14 07:35:34;;;;;;;6.10;2.10;;;;;;;1.95;88.22;99534.73;105580;1254;75428;-23
2023/02/14 07:38:02;;;;;;;3.80;2.20;;;;;;;2.34;86.99;99543.17;105489;1258;75029;-23
2023/02/14 07:40:31;;;;;;;2.40;1.70;;;;;;;2.45;85.92;99547.19;105705;1254;73889;-23
2023/02/14 07:43:00;;;;;;;2.90;1.90;;;;;;;2.36;86.24;99539.64;105667;1259;61695;-23
2023/02/14 07:45:28;;;;;;;4.10;1.80;;;;;;;2.35;86.55;99546.89;105701;1259;61557;-23
2023/02/14 07:48:00;;;;;;;3.80;1.90;;;;;;;2.12;87.45;99550.20;105658;1254;75346;-23
2023/02/14 07:50:30;;;;;;;4.10;2.40;;;;;;;2.22;87.22;99549.80;105712;1254;74687;-23
2023/02/14 07:52:58;;;;;;;8.30;2.70;;;;;;;2.47;86.50;99555.85;105670;1257;73898;-23
2023/02/14 07:55:27;;;;;;;3.80;2.00;;;;;;;2.48;86.65;99554.09;105605;1253;61657;-23
2023/02/14 07:57:56;;;;;;;2.60;1.30;;;;;;;2.28;87.54;99554.55;105604;1258;61852;-23
2023/02/14 08:00:24;;;;;;;4.30;2.40;;;;;;;2.36;87.65;99550.12;105660;1254;75447;-22
2023/02/14 08:02:54;;;;;;;2.40;1.90;;;;;;;2.60;86.07;99541.60;105659;1257;75598;-24
2023/02/14 08:05:23;;;;;;;5.50;1.80;;;;;;;2.69;85.25;99547.28;105679;1254;73194;-24
2023/02/14 08:07:51;;;;;;;5.40;2.20;;;;;;;2.50;85.65;99553.19;105703;1259;61159;-23
2023/02/14 08:10:20;;;;;;;5.20;2.00;;;;;;;2.38;86.52;99553.65;105539;1259;62085;-24
2023/02/14 08:12:58;;;;;;;5.90;2.80;;;;;;;2.21;86.69;99550.01;105557;1253;75222;-24
2023/02/14 08:18:19;;;;;;;3.20;1.80;;;;;;;2.53;84.90;99548.56;105632;1259;74174;-24
2023/02/14 08:20:48;;;;;;;3.50;1.90;;;;;;;2.57;85.69;99553.08;105642;1254;61565;-24
2023/02/14 08:23:18;;;;;;;4.50;1.90;;;;;;;2.41;85.39;99554.37;105517;1254;61042;-24
2023/02/14 08:25:47;;;;;;;4.30;1.90;;;;;;;2.63;85.26;99556.77;105429;1254;74663;-24
2023/02/14 08:28:16;;;;;;;4.40;1.80;;;;;;;3.12;83.08;99557.14;105497;1254;75535;-24
2023/02/14 08:30:45;;;;;;;6.00;2.20;;;;;;;3.15;82.04;99558.23;105501;1254;73006;-24
2023/02/14 08:33:13;;;;;;;3.20;2.00;;;;;;;2.63;82.36;99553.15;105551;1254;61919;-24
2023/02/14 08:35:42;;;;;;;2.60;1.60;;;;;;;2.90;82.79;99555.18;105628;1255;61227;-22
2023/02/14 08:38:10;;;;;;;6.80;2.30;;;;;;;3.06;82.29;99548.16;105623;1253;75118;-24
2023/02/14 08:40:40;;;;;;;2.90;1.40;;;;;;;2.99;81.16;99545.33;105503;1253;75648;-24
2023/02/14 08:43:09;;;;;;;3.70;1.80;;;;;;;3.20;80.20;99538.99;105500;1254;73994;-24
2023/02/14 08:45:37;;;;;;;5.20;2.50;;;;;;;3.19;79.93;99546.39;105617;1257;61214;-23
2023/02/14 08:48:08;;;;;;;5.70;2.50;;;;;;;3.34;79.47;99546.95;105848;1257;62059;-24
2023/02/14 08:50:37;;;;;;;3.90;1.80;;;;;;;2.94;80.66;99544.52;105681;1259;75547;-22
2023/02/14 08:53:10;;;;;;;5.20;1.80;;;;;;;2.78;81.20;99547.58;105722;1254;75582;-23
2023/02/14 08:55:39;;;;;;;4.10;2.00;;;;;;;2.85;81.26;99549.86;105630;1260;74157;-23
2023/02/14 08:58:09;;;;;;;2.80;1.80;;;;;;;3.12;79.37;99556.47;105651;1259;62612;-23
2023/02/14 09:00:37;;;;;;;3.10;1.90;;;;;;;3.41;78.73;99554.03;105677;1259;62052;-23
2023/02/14 09:03:11;;;;;;;;;;;;;;;3.42;77.24;99553.64;105612;1254;75831;-22
2023/02/14 09:05:39;;;;;;;4.80;2.00;;;;;;;3.15;77.25;99560.48;105676;1259;75409;-22
2023/02/14 09:08:08;;;;;;;4.50;2.10;;;;;;;3.08;77.93;99567.96;105716;1254;74243;-23
2023/02/14 09:10:42;;;;;;;3.80;2.00;;;;;;;2.92;78.38;99555.24;105581;1254;61235;-22
2023/02/14 09:13:12;;;;;;;4.10;1.90;;;;;;;2.81;78.73;99563.91;105521;1256;61844;-22
2023/02/14 09:15:40;;;;;;;4.00;2.20;;;;;;;3.10;78.14;99560.50;105657;1254;75647;-22
2023/02/14 09:18:10;;;;;;;3.70;2.00;;;;;;;3.46;76.51;99574.04;105666;1260;74672;-22
2023/02/14 09:20:38;;;;;;;3.80;1.80;;;;;;;3.38;76.05;99571.51;105685;1253;72974;-22
2023/02/14 09:23:07;;;;;;;4.80;2.00;;;;;;;3.44;75.86;99563.19;105687;1254;61052;-22
2023/02/14 09:25:36;;;;;;;5.30;2.10;;;;;;;3.44;75.38;99565.91;105701;1260;61574;-22
2023/02/14 09:28:04;;;;;;;4.70;2.00;;;;;;;3.63;75.32;99574.17;105688;1254;75320;-22
2023/02/14 09:30:33;;;;;;;3.40;1.70;;;;;;;3.96;75.68;99574.76;105717;1260;75827;-22
2023/02/14 09:33:04;;;;;;;4.70;2.40;;;;;;;4.03;74.86;99579.27;105636;1259;74206;-22
2023/02/14 09:35:33;;;;;;;3.90;1.50;;;;;;;3.58;72.60;99574.42;105591;1254;61174;-22
2023/02/14 09:38:18;;;;;;;6.50;2.00;;;;;;;3.90;71.84;99571.82;105574;1260;62179;-23
2023/02/14 09:40:49;;;;;;;3.30;1.50;;;;;;;4.04;71.67;99575.95;105556;1259;75558;-23
2023/02/14 09:43:57;;;;;;;4.70;1.70;;;;;;;3.97;70.64;99570.95;105489;1254;75824;-23
2023/02/14 09:46:27;;;;;;;4.40;1.90;;;;;;;4.18;70.83;99568.24;105530;1260;74258;-24
2023/02/14 09:48:56;;;;;;;10.90;2.30;;;;;;;3.79;70.81;99569.70;105441;1262;61132;-24
2023/02/14 09:51:26;;;;;;;5.70;2.00;;;;;;;3.52;71.85;99573.14;105509;1255;62336;-24
2023/02/14 09:54:00;;;;;;;4.50;1.80;;;;;;;3.33;72.32;99578.21;105575;1260;74143;-24
2023/02/14 09:56:46;;;;;;;6.50;1.60;;;;;;;3.33;72.37;99572.39;105588;1254;75700;-24
2023/02/14 09:59:36;;;;;;;4.10;1.80;;;;;;;3.59;72.23;99574.52;105586;1253;74046;-24
2023/02/14 10:02:05;;;;;;;3.60;1.60;;;;;;;3.36;71.01;99562.30;105676;1259;61055;-25
2023/02/14 10:04:38;;;;;;;3.60;1.40;;;;;;;3.09;70.84;99559.52;105698;1253;61178;-24
2023/02/14 10:07:18;;;;;;;5.60;1.70;;;;;;;3.15;69.99;99559.77;105703;1254;75317;-25
2023/02/14 10:09:49;;;;;;;2.50;1.40;;;;;;;3.01;70.21;99561.38;105555;1253;75777;-26
2023/02/14 10:12:22;;;;;;;4.10;1.70;;;;;;;3.21;71.28;99562.26;105452;1254;73939;-25
2023/02/14 10:14:52;;;;;;;4.00;1.60;;;;;;;3.32;72.46;99557.66;105615;1254;61564;-26
2023/02/14 10:17:35;;;;;;;4.60;1.80;;;;;;;3.74;71.93;99546.77;105655;1254;61157;-24
2023/02/14 10:20:10;;;;;;;3.30;1.60;;;;;;;3.93;71.82;99542.63;105480;1261;75247;-25
2023/02/14 10:22:49;;;;;;;4.50;1.80;;;;;;;3.60;69.27;99536.72;105563;1262;75791;-26
2023/02/14 10:25:27;;;;;;;3.70;1.70;;;;;;;3.90;69.50;99537.41;105358;1259;72343;-26
2023/02/14 10:27:57;;;;;;;4.00;1.90;;;;;;;4.09;68.54;99520.75;105565;1263;61270;-25
2023/02/14 10:30:26;;;;;;;7.70;2.30;;;;;;;3.65;70.03;99513.84;105656;1259;61600;-26
2023/02/14 10:33:06;;;;;;;3.40;1.50;;;;;;;3.67;70.70;99523.71;105701;1260;75383;-25
2023/02/14 10:35:54;;;;;;;3.30;1.70;;;;;;;3.71;71.10;99524.74;105684;1255;75741;-25
2023/02/14 10:38:50;;;;;;;5.40;1.90;;;;;;;3.49;70.38;99517.11;105656;1262;74538;-25
2023/02/14 10:41:21;;;;;;;6.90;2.10;;;;;;;3.44;69.41;99523.02;105670;1254;61068;-24
2023/02/14 10:43:56;;;;;;;3.90;1.80;;;;;;;3.87;68.76;99508.89;105514;1259;61770;-25
2023/02/14 10:46:43;;;;;;;3.00;2.00;;;;;;;4.08;69.69;99512.70;105581;1260;74472;-25
2023/02/14 10:49:17;;;;;;;4.90;2.10;;;;;;;4.23;69.81;99508.42;105672;1268;75820;-25
2023/02/14 10:51:50;;;;;;;2.90;1.60;;;;;;;4.27;69.68;99519.73;105628;1261;74158;-25
2023/02/14 10:54:24;;;;;;;2.70;1.30;;;;;;;4.16;68.87;99520.60;105659;1254;61631;-25
2023/02/14 10:57:02;;;;;;;4.40;1.90;;;;;;;4.18;68.47;99501.92;105672;1260;61141;-25
2023/02/14 10:59:49;;;;;;;4.40;1.60;;;;;;;3.91;68.67;99504.23;105670;1255;75520;-24
2023/02/14 11:02:21;;;;;;;6.60;1.80;;;;;;;3.78;69.56;99505.84;105653;1253;75556;-26
2023/02/14 11:04:52;;;;;;;5.60;2.00;;;;;;;3.81;69.13;99505.90;105651;1259;74176;-24
2023/02/14 11:07:21;;;;;;;5.20;2.20;;;;;;;3.89;69.41;99506.19;105730;1260;61240;-24
2023/02/14 11:09:52;;;;;;;4.80;1.90;;;;;;;3.70;68.79;99484.60;105631;1259;61797;-25
2023/02/14 11:12:50;;;;;;;3.10;1.50;;;;;;;3.63;67.94;99486.99;105662;1260;74400;-25
2023/02/14 11:15:26;;;;;;;4.80;2.20;;;;;;;3.75;68.96;99498.26;105639;1263;75620;-25
2023/02/14 11:18:30;;;;;;;3.30;1.50;;;;;;;3.98;67.68;99497.17;105486;1259;74087;-25
2023/02/14 11:21:05;;;;;;;4.20;2.00;;;;;;;3.93;68.52;99498.48;105611;1255;61207;-25
2023/02/14 11:23:45;;;;;;;5.00;1.90;;;;;;;3.74;67.41;99498.33;105630;1260;62335;-26
2023/02/14 11:26:15;;;;;;;4.40;1.50;;;;;;;4.03;66.59;99486.67;105466;1263;75167;-26
2023/02/14 11:28:51;;;;;;;3.40;1.70;;;;;;;4.38;65.20;99481.93;105485;1269;76009;-25
2023/02/14 11:31:25;;;;;;;2.40;1.40;;;;;;;4.59;65.60;99493.05;105404;1259;74208;-26
2023/02/14 11:33:54;;;;;;;2.80;1.70;;;;;;;4.81;65.68;99473.39;105462;1255;61089;-25
2023/02/14 11:36:23;;;;;;;2.40;1.20;;;;;;;4.84;65.98;99468.95;105653;1254;60998;-25
2023/02/14 11:39:16;;;;;;;4.70;1.80;;;;;;;4.90;65.09;99471.95;105659;1258;75149;-25
2023/02/14 11:41:55;;;;;;;3.30;1.80;;;;;;;4.72;64.78;99475.94;105724;1258;75866;-25
2023/02/14 11:44:25;;;;;;;3.90;1.40;;;;;;;4.77;64.16;99485.84;105670;1260;73216;-25
2023/02/14 11:46:55;;;;;;;5.60;1.80;;;;;;;4.87;63.88;99475.20;105668;1255;61053;-25
2023/02/14 11:49:31;;;;;;;4.10;1.60;;;;;;;4.80;64.67;99485.70;105671;1259;62419;-25
2023/02/14 11:52:08;;;;;;;4.10;1.80;;;;;;;4.51;65.40;99477.81;105595;1257;75443;-25
2023/02/14 11:54:39;;;;;;;5.70;2.30;;;;;;;4.16;65.80;99480.54;105620;1263;75910;-25
2023/02/14 11:57:20;;;;;;;3.00;2.00;;;;;;;4.14;65.55;99469.30;105686;1254;74297;-25
2023/02/14 11:59:52;;;;;;;3.70;1.40;;;;;;;4.11;66.03;99478.36;105677;1259;61052;-25
2023/02/14 12:02:46;;;;;;;5.00;2.10;;;;;;;3.96;65.80;99466.71;105638;1260;61214;-25
2023/02/14 12:05:17;;;;;;;4.20;1.90;;;;;;;4.29;65.41;99462.59;105671;1254;75308;-25
2023/02/14 12:07:50;;;;;;;4.40;1.90;;;;;;;4.39;65.29;99464.02;105605;1261;75807;-25
2023/02/14 12:10:30;;;;;;;4.20;2.10;;;;;;;4.44;64.89;99468.05;105615;1260;73987;-26
2023/02/14 12:13:03;;;;;;;4.80;2.00;;;;;;;4.28;64.37;99462.45;105692;1259;61167;-25
2023/02/14 12:15:42;;;;;;;5.90;2.30;;;;;;;4.16;65.11;99469.92;105674;1259;61603;-25
2023/02/14 12:18:47;;;;;;;4.90;1.90;;;;;;;4.55;65.71;99480.59;105704;1259;75577;-25
2023/02/14 12:21:47;;;;;;;7.40;1.70;;;;;;;4.75;64.29;99463.95;105546;1263;75675;-24
2023/02/14 12:24:28;;;;;;;3.70;1.60;;;;;;;4.61;63.39;99449.16;105602;1257;74143;-25
2023/02/14 12:27:29;;;;;;;6.10;2.20;;;;;;;4.47;63.57;99453.95;105572;1254;61047;-25